Time;durP1;ratioP1;P1;durP2;ratioP2;P2;SDS_P1;SDS_P2;PMS_P1;PMS_P2;Temp;Humidity;BMP_temperature;BMP_pressure;BME280_temperature;BME280_humidity;BME280_pressure;Samples;Min_cycle;Max_cycle;Signal;HPM_P1;HPM_P2
2023/07/20 00:00:53;;;;;;;0.43;0.30;;;;;;;18.19;84.75;100486.88;4977260;28;20026;-65
2023/07/20 00:03:22;;;;;;;0.45;0.30;;;;;;;18.16;84.47;100483.03;4967780;28;20034;-66
2023/07/20 00:05:49;;;;;;;1.00;0.47;;;;;;;18.11;84.92;100488.16;4978934;28;20542;-65
2023/07/20 00:08:35;;;;;;;1.33;0.60;;;;;;;18.09;85.02;100493.25;4973322;28;20042;-66
2023/07/20 00:11:00;;;;;;;0.47;0.28;;;;;;;18.00;85.38;100483.63;4868193;29;20110;-65
2023/07/20 00:13:27;;;;;;;0.55;0.30;;;;;;;18.03;85.30;100484.75;4880670;29;20158;-64
2023/07/20 00:15:53;;;;;;;0.43;0.32;;;;;;;18.09;85.58;100493.25;4876764;29;20045;-66
2023/07/20 00:18:21;;;;;;;0.20;0.20;;;;;;;18.15;84.76;100473.31;4872209;29;20037;-65
2023/07/20 00:20:47;;;;;;;0.50;0.50;;;;;;;18.00;85.50;100480.13;4881101;29;20100;-65
2023/07/20 00:23:12;;;;;;;0.50;0.47;;;;;;;17.98;85.93;100475.06;4884409;29;20044;-66
2023/07/20 00:25:38;;;;;;;0.30;0.30;;;;;;;18.03;86.15;100476.59;4883670;29;20494;-65
2023/07/20 00:28:03;;;;;;;0.77;0.52;;;;;;;18.03;86.76;100480.09;4873440;29;20053;-66
2023/07/20 00:30:29;;;;;;;0.70;0.50;;;;;;;18.14;86.36;100482.66;4882480;29;20085;-65
2023/07/20 00:32:54;;;;;;;0.75;0.50;;;;;;;18.16;86.49;100482.25;4879632;29;20040;-65
2023/07/20 00:35:21;;;;;;;0.50;0.40;;;;;;;18.13;87.49;100483.84;4866882;29;20136;-66
2023/07/20 00:37:47;;;;;;;0.80;0.43;;;;;;;18.18;87.24;100480.66;4879517;29;20446;-65
2023/07/20 00:40:12;;;;;;;2.63;0.43;;;;;;;18.29;86.46;100481.28;4851706;29;20044;-66
2023/07/20 00:42:38;;;;;;;0.65;0.40;;;;;;;18.24;87.07;100472.78;4871913;29;20060;-67
2023/07/20 00:45:04;;;;;;;1.38;0.50;;;;;;;18.25;87.46;100475.13;4875559;29;20037;-65
2023/07/20 00:47:30;;;;;;;0.25;0.25;;;;;;;18.29;87.28;100461.44;4890760;28;20570;-68
2023/07/20 00:49:55;;;;;;;0.50;0.40;;;;;;;18.28;87.36;100468.06;4970147;28;20038;-66
2023/07/20 00:52:25;;;;;;;1.25;0.28;;;;;;;18.26;87.69;100470.44;4978761;28;20022;-66
2023/07/20 00:54:51;;;;;;;0.47;0.45;;;;;;;18.30;87.69;100471.94;4974064;28;20054;-66
2023/07/20 00:57:18;;;;;;;0.65;0.55;;;;;;;18.28;87.71;100477.03;4967888;28;20396;-66
2023/07/20 00:59:44;;;;;;;0.93;0.52;;;;;;;18.30;87.98;100469.19;4969154;28;20109;-65
2023/07/20 01:02:10;;;;;;;0.63;0.50;;;;;;;18.36;88.09;100474.97;4955792;28;20492;-65
2023/07/20 01:04:37;;;;;;;1.00;0.40;;;;;;;18.35;88.34;100484.34;4973770;28;20042;-65
2023/07/20 01:07:22;;;;;;;0.50;0.50;;;;;;;18.29;88.29;100475.06;4967728;28;20030;-66
2023/07/20 01:09:59;;;;;;;0.52;0.50;;;;;;;18.32;88.73;100471.50;4980757;28;20038;-66
2023/07/20 01:12:40;;;;;;;0.63;0.45;;;;;;;18.33;89.04;100464.88;4970294;28;20078;-66
2023/07/20 01:15:07;;;;;;;0.60;0.43;;;;;;;18.38;89.01;100475.31;4973287;28;20041;-65
2023/07/20 01:17:34;;;;;;;1.33;0.60;;;;;;;18.35;88.87;100479.63;4970752;28;21963;-65
2023/07/20 01:20:00;;;;;;;0.65;0.45;;;;;;;18.40;89.01;100481.91;4960655;28;20138;-66
2023/07/20 01:22:44;;;;;;;0.60;0.45;;;;;;;18.46;88.52;100487.72;4983694;28;20092;-66
2023/07/20 01:25:37;;;;;;;3.80;0.60;;;;;;;18.48;88.70;100490.78;4986068;28;20038;-66
2023/07/20 01:28:35;;;;;;;0.50;0.50;;;;;;;18.44;89.06;100482.66;4978489;28;20054;-65
2023/07/20 01:31:30;;;;;;;2.47;0.73;;;;;;;18.37;89.94;100484.69;4967350;28;20039;-66
2023/07/20 01:33:58;;;;;;;0.70;0.55;;;;;;;18.32;90.72;100480.47;4967840;28;20073;-65
2023/07/20 01:36:26;;;;;;;0.52;0.52;;;;;;;18.38;90.71;100480.78;4978612;28;20022;-65
2023/07/20 01:38:53;;;;;;;1.23;0.45;;;;;;;18.33;91.06;100471.09;4973359;28;20085;-66
2023/07/20 01:41:18;;;;;;;4.55;0.63;;;;;;;18.34;91.36;100471.88;4969335;28;20027;-65
2023/07/20 01:43:45;;;;;;;0.85;0.57;;;;;;;18.32;91.19;100469.56;4975171;28;20038;-66
2023/07/20 01:46:11;;;;;;;2.28;0.60;;;;;;;18.32;91.20;100475.00;4994209;28;20049;-65
2023/07/20 01:48:36;;;;;;;0.50;0.50;;;;;;;18.35;91.25;100473.44;4967583;28;20038;-65
2023/07/20 01:51:01;;;;;;;0.45;0.45;;;;;;;18.29;91.94;100466.91;4970883;28;20026;-66
2023/07/20 01:53:27;;;;;;;1.20;0.55;;;;;;;18.26;92.36;100471.19;4978289;28;20703;-66
2023/07/20 01:55:54;;;;;;;1.05;0.57;;;;;;;18.30;92.29;100465.69;4983106;28;20038;-66
2023/07/20 01:58:19;;;;;;;0.80;0.55;;;;;;;18.28;92.74;100468.84;4975725;28;20022;-66
2023/07/20 02:00:45;;;;;;;0.52;0.50;;;;;;;18.32;92.29;100466.06;4975889;28;20046;-66
2023/07/20 02:03:11;;;;;;;0.63;0.63;;;;;;;18.32;92.36;100472.28;4978611;28;20103;-65
2023/07/20 02:05:37;;;;;;;1.20;0.75;;;;;;;18.27;92.87;100461.84;4971841;28;20026;-65
2023/07/20 02:08:03;;;;;;;2.28;0.88;;;;;;;18.27;93.02;100461.06;4972418;28;20491;-66
2023/07/20 02:10:28;;;;;;;3.30;1.08;;;;;;;18.26;92.83;100465.75;4980016;28;20110;-66
2023/07/20 02:12:54;;;;;;;1.27;0.80;;;;;;;18.28;92.47;100460.66;4973466;28;20045;-66
2023/07/20 02:15:20;;;;;;;0.80;0.75;;;;;;;18.27;92.69;100464.59;4972098;28;20031;-66
2023/07/20 02:17:46;;;;;;;1.25;1.02;;;;;;;18.27;93.05;100463.81;4975503;28;20081;-66
2023/07/20 02:20:11;;;;;;;1.73;0.70;;;;;;;18.24;93.09;100461.88;4976220;28;20427;-66
2023/07/20 02:22:38;;;;;;;1.65;1.05;;;;;;;18.22;93.53;100458.78;4962234;28;20050;-66
2023/07/20 02:25:07;;;;;;;1.75;0.90;;;;;;;18.21;93.87;100462.72;4981264;28;20046;-66
2023/07/20 02:27:36;;;;;;;0.80;0.77;;;;;;;18.19;94.11;100465.09;4976349;28;20054;-66
2023/07/20 02:30:05;;;;;;;0.95;0.82;;;;;;;18.22;93.98;100464.25;4962912;28;20495;-66
2023/07/20 02:32:31;;;;;;;2.10;1.27;;;;;;;18.17;93.97;100465.50;4962785;28;20065;-66
2023/07/20 02:34:57;;;;;;;1.55;0.85;;;;;;;18.18;93.73;100474.44;4969398;28;20525;-66
2023/07/20 02:37:23;;;;;;;1.98;0.98;;;;;;;18.19;93.78;100476.75;4974445;28;20039;-66
2023/07/20 02:39:48;;;;;;;1.50;0.95;;;;;;;18.20;93.74;100477.50;4963046;28;20030;-66
2023/07/20 02:42:14;;;;;;;1.73;1.10;;;;;;;18.19;94.08;100486.88;4971581;28;20034;-66
2023/07/20 02:44:40;;;;;;;3.03;1.52;;;;;;;18.20;94.56;100485.69;4983006;28;20041;-66
2023/07/20 02:47:06;;;;;;;1.48;0.95;;;;;;;18.23;94.42;100479.44;4964092;28;20039;-66
2023/07/20 02:49:31;;;;;;;1.92;1.17;;;;;;;18.19;94.35;100484.16;4978453;28;20106;-66
2023/07/20 02:51:57;;;;;;;1.42;0.95;;;;;;;18.20;94.39;100485.69;4962440;28;20548;-66
2023/07/20 02:54:23;;;;;;;1.15;0.85;;;;;;;18.27;93.93;100483.66;4970321;28;20463;-66
2023/07/20 02:56:48;;;;;;;1.15;0.80;;;;;;;18.30;93.44;100482.84;4965866;28;20045;-66
2023/07/20 02:59:14;;;;;;;2.72;1.05;;;;;;;18.19;94.08;100478.72;4968638;28;20038;-67
2023/07/20 03:01:41;;;;;;;2.35;0.93;;;;;;;18.18;94.34;100474.44;4977779;28;20042;-66
2023/07/20 03:04:07;;;;;;;1.67;1.17;;;;;;;18.19;93.99;100476.75;4966262;28;20050;-66
2023/07/20 03:06:35;;;;;;;1.45;1.17;;;;;;;18.15;94.27;100481.50;4969706;28;20369;-66
2023/07/20 03:09:01;;;;;;;0.93;0.70;;;;;;;18.09;94.23;100485.84;4976387;28;20114;-67
2023/07/20 03:11:27;;;;;;;1.23;1.10;;;;;;;18.12;95.01;100484.28;4976584;28;20098;-67
2023/07/20 03:13:52;;;;;;;2.05;1.33;;;;;;;18.12;95.19;100482.28;4964273;28;20073;-66
2023/07/20 03:16:19;;;;;;;1.25;0.98;;;;;;;18.14;95.15;100482.66;4967637;28;20047;-65
2023/07/20 03:18:45;;;;;;;1.42;1.05;;;;;;;18.09;94.93;100488.56;4970876;28;20019;-65
2023/07/20 03:21:13;;;;;;;1.92;1.25;;;;;;;18.16;94.94;100499.38;4979768;28;20117;-66
2023/07/20 03:23:40;;;;;;;1.90;1.20;;;;;;;18.17;94.52;100495.50;4995958;28;20118;-66
2023/07/20 03:26:08;;;;;;;1.52;1.05;;;;;;;18.16;94.86;100499.38;4978249;28;20033;-67
2023/07/20 03:28:34;;;;;;;1.50;0.90;;;;;;;18.15;94.98;100486.94;4974706;28;20121;-66
2023/07/20 03:31:00;;;;;;;7.28;1.35;;;;;;;18.09;94.99;100488.56;4976423;28;20448;-66
2023/07/20 03:33:31;;;;;;;1.75;1.13;;;;;;;18.03;95.62;100487.47;4974729;28;20069;-66
2023/07/20 03:35:58;;;;;;;3.42;1.00;;;;;;;17.99;95.74;100489.47;4970430;28;20034;-66
2023/07/20 03:38:25;;;;;;;0.95;0.93;;;;;;;18.03;95.29;100488.25;4967266;28;20027;-67
2023/07/20 03:40:59;;;;;;;1.77;1.05;;;;;;;18.06;95.62;100494.09;4980729;28;20109;-66
2023/07/20 03:43:25;;;;;;;2.53;1.00;;;;;;;18.08;95.22;100487.03;4973734;28;20069;-65
2023/07/20 03:45:51;;;;;;;6.15;1.00;;;;;;;18.06;96.06;100488.63;4969296;28;20098;-66
2023/07/20 03:48:22;;;;;;;1.38;0.90;;;;;;;18.11;95.44;100499.84;4960466;28;20034;-66
2023/07/20 03:50:48;;;;;;;2.87;1.00;;;;;;;18.08;95.17;100503.38;4974189;28;20034;-66
2023/07/20 03:53:14;;;;;;;1.70;1.30;;;;;;;18.13;94.65;100499.44;4974759;28;20033;-67
2023/07/20 03:55:41;;;;;;;1.15;1.00;;;;;;;18.08;95.25;100486.28;4977458;28;20045;-66
2023/07/20 03:58:07;;;;;;;2.00;1.30;;;;;;;18.09;95.72;100498.69;4962155;28;20034;-65
2023/07/20 04:00:34;;;;;;;2.42;1.17;;;;;;;18.07;95.70;100503.78;4950945;28;20492;-66
2023/07/20 04:03:00;;;;;;;0.85;0.85;;;;;;;18.13;95.31;100499.44;4965514;28;20035;-66
2023/07/20 04:05:46;;;;;;;1.73;0.73;;;;;;;18.13;95.40;100499.44;4973762;28;20031;-67
2023/07/20 04:08:12;;;;;;;2.30;1.17;;;;;;;18.16;95.41;100512.22;4927550;29;20412;-65
2023/07/20 04:10:38;;;;;;;2.50;1.00;;;;;;;18.12;95.30;100506.06;4932480;29;20040;-66
2023/07/20 04:13:04;;;;;;;1.48;0.80;;;;;;;18.19;95.12;100508.69;4933230;29;20055;-65
2023/07/20 04:15:30;;;;;;;2.78;1.23;;;;;;;18.14;95.25;100509.16;4936206;29;20031;-65
2023/07/20 04:17:56;;;;;;;2.10;1.05;;;;;;;18.12;95.54;100512.28;4936665;29;20038;-66
2023/07/20 04:20:25;;;;;;;1.50;0.85;;;;;;;18.14;95.32;100511.91;4943322;29;20159;-65
2023/07/20 04:22:51;;;;;;;1.80;1.00;;;;;;;18.10;95.37;100505.72;4927256;28;20563;-65
2023/07/20 04:25:17;;;;;;;0.75;0.68;;;;;;;18.09;95.63;100513.09;4942470;29;20677;-65
2023/07/20 04:27:43;;;;;;;1.45;0.88;;;;;;;18.13;95.72;100513.06;4941450;29;20046;-66
2023/07/20 04:30:11;;;;;;;0.98;0.73;;;;;;;18.09;95.65;100520.50;4947017;29;20035;-69
2023/07/20 04:32:38;;;;;;;1.80;0.90;;;;;;;18.12;95.78;100523.19;4912188;29;20122;-65
2023/07/20 04:35:09;;;;;;;1.27;0.80;;;;;;;18.16;95.22;100510.28;4926251;29;20036;-65
2023/07/20 04:37:45;;;;;;;1.38;1.05;;;;;;;18.12;95.79;100517.72;4927693;29;20035;-65
2023/07/20 04:40:15;;;;;;;1.45;0.93;;;;;;;18.13;95.95;100527.47;4928799;29;20034;-65
2023/07/20 04:42:41;;;;;;;0.75;0.63;;;;;;;18.21;95.75;100525.41;4939560;29;20047;-66
2023/07/20 04:45:07;;;;;;;1.20;0.90;;;;;;;18.24;95.66;100514.47;4952931;28;20483;-65
2023/07/20 04:47:32;;;;;;;0.90;0.77;;;;;;;18.25;95.71;100517.97;4965977;28;20038;-64
2023/07/20 04:49:58;;;;;;;1.33;0.70;;;;;;;18.31;94.89;100519.81;4985036;28;20502;-65
2023/07/20 04:52:24;;;;;;;0.90;0.80;;;;;;;18.25;95.38;100523.44;4976401;28;20518;-64
2023/07/20 04:54:50;;;;;;;1.13;0.55;;;;;;;18.26;95.37;100519.50;4963649;28;20050;-67
2023/07/20 04:57:15;;;;;;;0.57;0.50;;;;;;;18.29;95.24;100524.16;4950160;28;20443;-65
2023/07/20 04:59:46;;;;;;;;;;;;;;;18.28;95.34;100520.66;4976893;28;20493;-65
2023/07/20 05:02:12;;;;;;;0.82;0.50;;;;;;;18.25;95.64;100517.97;4969759;28;19954;-67
2023/07/20 05:04:37;;;;;;;1.65;0.90;;;;;;;18.28;95.23;100523.38;4980817;28;20034;-65
2023/07/20 05:07:03;;;;;;;3.10;1.10;;;;;;;18.27;95.25;100521.84;4976080;28;20035;-66
2023/07/20 05:09:28;;;;;;;1.40;1.08;;;;;;;18.36;95.30;100526.78;4956242;28;20027;-65
2023/07/20 05:11:54;;;;;;;1.90;1.15;;;;;;;18.36;95.01;100522.09;4987001;28;20038;-68
2023/07/20 05:14:19;;;;;;;1.67;1.13;;;;;;;18.39;94.96;100515.06;4972584;28;20033;-65
2023/07/20 05:16:47;;;;;;;1.73;1.00;;;;;;;18.39;94.95;100509.59;4977654;28;20030;-65
2023/07/20 05:19:13;;;;;;;2.30;1.20;;;;;;;18.50;95.20;100515.72;4965475;28;20027;-66
2023/07/20 05:21:38;;;;;;;1.33;0.88;;;;;;;18.49;95.77;100514.16;4983215;28;20427;-66
2023/07/20 05:24:04;;;;;;;2.80;1.80;;;;;;;18.61;95.49;100527.22;4977009;28;20045;-65
2023/07/20 05:26:30;;;;;;;2.55;1.52;;;;;;;18.79;94.50;100522.28;4983633;28;20035;-64
2023/07/20 05:28:55;;;;;;;1.90;1.35;;;;;;;18.88;94.36;100522.53;4979771;28;20045;-65
2023/07/20 05:31:21;;;;;;;2.20;1.27;;;;;;;18.92;94.36;100524.03;4977128;28;20038;-65
2023/07/20 05:33:46;;;;;;;3.92;1.90;;;;;;;19.17;94.35;100526.34;4972927;28;20038;-65
2023/07/20 05:36:12;;;;;;;4.07;2.03;;;;;;;19.34;93.75;100529.97;4967286;28;20108;-66
2023/07/20 05:38:37;;;;;;;2.67;1.67;;;;;;;19.59;93.27;100531.06;4982775;28;20409;-67
2023/07/20 05:41:03;;;;;;;2.20;1.67;;;;;;;19.69;92.89;100523.88;4997954;28;20030;-65
2023/07/20 05:43:32;;;;;;;3.28;2.00;;;;;;;19.82;92.43;100533.00;4972236;28;20038;-64
2023/07/20 05:45:57;;;;;;;2.67;1.55;;;;;;;19.79;91.27;100525.63;4979978;28;20027;-67
2023/07/20 05:48:26;;;;;;;3.28;2.10;;;;;;;19.97;91.37;100528.78;4980503;28;20534;-66
2023/07/20 05:50:52;;;;;;;1.45;1.27;;;;;;;20.06;90.35;100533.69;4971890;28;20046;-67
2023/07/20 05:53:17;;;;;;;4.07;1.00;;;;;;;19.92;89.64;100523.06;4968231;28;20166;-67
2023/07/20 05:55:42;;;;;;;1.00;0.80;;;;;;;19.99;89.88;100528.38;4974486;28;20034;-65
2023/07/20 05:58:08;;;;;;;1.33;1.00;;;;;;;20.15;89.28;100526.44;4972014;28;20034;-66
2023/07/20 06:00:33;;;;;;;1.27;0.93;;;;;;;20.16;88.66;100529.97;4968997;28;20039;-68
2023/07/20 06:02:59;;;;;;;1.13;0.75;;;;;;;20.26;88.17;100531.75;4973823;28;20119;-67
2023/07/20 06:05:24;;;;;;;0.88;0.77;;;;;;;20.44;88.05;100535.63;4963036;28;20504;-67
2023/07/20 06:07:50;;;;;;;2.78;1.10;;;;;;;20.62;87.40;100537.97;4971338;28;20109;-67
2023/07/20 06:10:16;;;;;;;1.75;0.90;;;;;;;20.86;86.61;100539.38;4968934;28;20042;-67
2023/07/20 06:12:41;;;;;;;3.47;0.90;;;;;;;21.10;84.79;100540.00;4974640;28;20122;-67
2023/07/20 06:15:25;;;;;;;1.58;0.55;;;;;;;21.55;84.35;100538.81;4968202;28;20100;-67
2023/07/20 06:17:51;;;;;;;1.17;0.70;;;;;;;21.59;83.28;100544.22;4965173;28;20095;-67
2023/07/20 06:20:16;;;;;;;0.90;0.70;;;;;;;21.74;82.85;100545.38;4980035;28;20070;-67
2023/07/20 06:22:42;;;;;;;3.17;0.70;;;;;;;21.87;81.75;100537.22;4973974;28;20053;-67
2023/07/20 06:25:07;;;;;;;0.60;0.50;;;;;;;21.98;81.52;100548.66;4970718;28;20037;-67
2023/07/20 06:27:33;;;;;;;3.17;0.75;;;;;;;22.10;81.07;100556.94;4969246;28;20562;-66
2023/07/20 06:29:58;;;;;;;0.85;0.70;;;;;;;22.22;80.29;100547.94;4977516;28;20019;-67
2023/07/20 06:32:23;;;;;;;1.00;0.70;;;;;;;22.21;79.75;100549.16;4962801;28;20392;-67
2023/07/20 06:34:49;;;;;;;0.70;0.57;;;;;;;22.34;79.59;100554.66;4970141;28;20030;-67
2023/07/20 06:37:14;;;;;;;0.77;0.63;;;;;;;22.46;80.02;100548.41;4980227;28;20070;-68
2023/07/20 06:39:40;;;;;;;0.60;0.60;;;;;;;22.58;79.62;100549.66;4961446;28;20046;-67
2023/07/20 06:42:06;;;;;;;1.20;0.85;;;;;;;22.58;78.29;100555.16;4974609;28;20053;-67
2023/07/20 06:44:31;;;;;;;1.05;0.65;;;;;;;22.58;77.83;100553.19;4978994;28;20035;-68
2023/07/20 06:46:56;;;;;;;0.82;0.52;;;;;;;22.70;78.08;100554.41;4980803;28;20392;-67
2023/07/20 06:49:26;;;;;;;0.47;0.47;;;;;;;22.58;76.86;100547.69;4960810;28;20518;-66
2023/07/20 06:51:52;;;;;;;3.22;0.50;;;;;;;22.45;75.16;100555.13;4962858;28;20704;-66
2023/07/20 06:54:17;;;;;;;0.40;0.40;;;;;;;22.14;75.16;100545.84;4977826;28;20122;-67
2023/07/20 06:56:43;;;;;;;1.23;0.45;;;;;;;21.82;76.51;100549.47;4970458;28;20023;-67
2023/07/20 06:59:08;;;;;;;0.45;0.45;;;;;;;21.68;76.95;100541.59;4961758;28;20031;-67
2023/07/20 07:01:34;;;;;;;0.50;0.50;;;;;;;21.48;78.04;100544.50;4971106;28;20117;-68
2023/07/20 07:03:59;;;;;;;1.88;0.47;;;;;;;21.44;78.46;100546.56;4969947;28;20134;-67
2023/07/20 07:06:24;;;;;;;0.40;0.40;;;;;;;21.30;79.17;100544.19;4974149;28;20509;-67
2023/07/20 07:08:50;;;;;;;0.50;0.50;;;;;;;21.11;80.58;100536.84;4961488;28;20449;-67
2023/07/20 07:11:15;;;;;;;0.50;0.40;;;;;;;21.28;80.84;100541.09;4972898;28;20655;-67
2023/07/20 07:13:41;;;;;;;0.20;0.20;;;;;;;21.46;79.79;100543.38;4964325;28;20437;-67
2023/07/20 07:16:06;;;;;;;0.77;0.50;;;;;;;21.49;79.75;100548.00;4973781;28;20039;-65
2023/07/20 07:18:32;;;;;;;1.75;0.30;;;;;;;21.67;79.31;100553.00;4969267;28;20130;-67
2023/07/20 07:20:57;;;;;;;0.40;0.30;;;;;;;21.66;79.14;100543.25;4969877;28;20415;-67
2023/07/20 07:23:22;;;;;;;0.20;0.20;;;;;;;21.46;79.30;100543.38;4963426;28;20027;-66
2023/07/20 07:25:48;;;;;;;0.38;0.38;;;;;;;21.37;78.94;100552.22;4970144;28;20042;-67
2023/07/20 07:28:14;;;;;;;1.33;0.35;;;;;;;21.13;78.30;100552.84;4963634;28;20061;-67
2023/07/20 07:30:40;;;;;;;0.22;0.20;;;;;;;21.08;78.35;100543.16;4979339;28;20038;-67
2023/07/20 07:33:05;;;;;;;0.40;0.28;;;;;;;21.11;79.45;100555.22;4969685;28;20045;-67
2023/07/20 07:35:30;;;;;;;0.68;0.35;;;;;;;21.16;79.79;100550.00;4960493;28;20396;-67
2023/07/20 07:37:56;;;;;;;0.30;0.25;;;;;;;21.13;80.21;100550.09;4967114;28;20045;-67
2023/07/20 07:40:21;;;;;;;0.30;0.30;;;;;;;21.46;80.33;100546.91;4972609;28;20035;-67
2023/07/20 07:42:47;;;;;;;0.55;0.28;;;;;;;21.79;79.47;100544.06;4978187;28;20463;-67
2023/07/20 07:45:13;;;;;;;0.95;0.77;;;;;;;22.14;77.50;100554.84;4969178;28;20042;-67
2023/07/20 07:47:39;;;;;;;0.43;0.40;;;;;;;22.23;74.50;100556.94;4978854;28;20076;-67
2023/07/20 07:50:05;;;;;;;3.80;0.40;;;;;;;22.19;71.84;100561.78;4967017;28;20035;-67
2023/07/20 07:52:30;;;;;;;0.45;0.38;;;;;;;22.37;71.18;100565.56;4967453;28;20029;-66
2023/07/20 07:54:55;;;;;;;0.13;0.13;;;;;;;22.74;71.36;100571.53;4967925;28;20234;-67
2023/07/20 07:57:21;;;;;;;0.50;0.38;;;;;;;22.77;70.41;100568.66;4970483;28;20037;-67
2023/07/20 07:59:52;;;;;;;0.40;0.30;;;;;;;22.84;70.30;100571.19;4968766;28;20067;-69
2023/07/20 08:02:18;;;;;;;0.77;0.32;;;;;;;22.60;68.86;100574.72;4963774;28;20038;-66
2023/07/20 08:04:43;;;;;;;0.50;0.30;;;;;;;22.55;67.39;100578.72;4978483;28;20030;-67
2023/07/20 08:07:09;;;;;;;0.28;0.25;;;;;;;22.44;66.57;100575.53;4973249;28;20345;-67
2023/07/20 08:09:34;;;;;;;0.20;0.20;;;;;;;22.16;69.33;100579.88;4967355;28;20101;-67
2023/07/20 08:12:00;;;;;;;2.20;0.30;;;;;;;22.02;70.24;100588.50;4967449;28;20038;-67
2023/07/20 08:14:25;;;;;;;1.05;0.50;;;;;;;21.66;73.19;100576.16;4968525;28;20042;-67
2023/07/20 08:16:51;;;;;;;1.48;0.25;;;;;;;21.45;74.42;100580.97;4963711;28;20065;-68
2023/07/20 08:19:17;;;;;;;0.40;0.20;;;;;;;21.16;76.91;100582.88;4966869;28;20121;-66
2023/07/20 08:21:42;;;;;;;0.22;0.22;;;;;;;21.10;77.99;100587.31;4967254;28;20046;-67
2023/07/20 08:24:07;;;;;;;1.13;0.40;;;;;;;21.36;77.93;100580.81;4959843;28;20243;-67
2023/07/20 08:26:33;;;;;;;0.85;0.43;;;;;;;21.66;78.21;100587.88;4969505;28;20492;-67
2023/07/20 08:28:58;;;;;;;0.80;0.60;;;;;;;22.02;77.98;100574.03;4980468;28;20042;-67
2023/07/20 08:31:24;;;;;;;0.60;0.30;;;;;;;22.31;77.42;100570.03;4971518;28;20035;-67
2023/07/20 08:33:49;;;;;;;0.70;0.20;;;;;;;22.45;76.57;100577.84;4968731;28;20031;-67
2023/07/20 08:36:14;;;;;;;0.45;0.30;;;;;;;22.74;75.70;100583.31;4971043;28;20042;-68
2023/07/20 08:38:40;;;;;;;0.38;0.28;;;;;;;22.87;72.83;100575.03;4974863;28;20042;-67
2023/07/20 08:41:09;;;;;;;1.75;0.40;;;;;;;23.21;70.31;100584.13;4979702;28;20047;-66
2023/07/20 08:43:37;;;;;;;0.98;0.50;;;;;;;23.36;67.78;100587.22;4961736;28;20496;-67
2023/07/20 08:46:04;;;;;;;1.00;0.30;;;;;;;23.67;66.29;100581.84;4968792;28;20058;-67
2023/07/20 08:48:30;;;;;;;0.47;0.20;;;;;;;23.96;64.93;100580.38;4961372;28;20878;-67
2023/07/20 08:50:58;;;;;;;0.40;0.40;;;;;;;24.24;62.91;100581.38;4964452;28;20394;-67
2023/07/20 08:53:23;;;;;;;0.57;0.40;;;;;;;24.42;61.32;100580.72;4961773;28;20039;-67
2023/07/20 08:55:52;;;;;;;0.55;0.40;;;;;;;24.29;60.86;100583.56;4967861;28;20041;-66
2023/07/20 08:58:18;;;;;;;2.42;0.25;;;;;;;24.30;60.65;100587.06;4956977;28;20093;-65
2023/07/20 09:00:44;;;;;;;1.88;0.20;;;;;;;24.36;59.55;100594.31;4967124;28;20034;-67
2023/07/20 09:03:11;;;;;;;1.40;0.30;;;;;;;24.44;56.99;100594.81;4963356;28;20105;-66
2023/07/20 09:05:36;;;;;;;3.08;0.90;;;;;;;24.48;56.10;100584.44;4956726;28;20046;-65
2023/07/20 09:08:05;;;;;;;0.47;0.40;;;;;;;24.55;55.47;100584.91;4964935;28;20039;-68
2023/07/20 09:10:31;;;;;;;0.50;0.50;;;;;;;24.38;55.25;100596.59;4971735;28;20039;-66
2023/07/20 09:12:56;;;;;;;1.58;0.38;;;;;;;24.29;55.36;100591.81;4952972;28;20034;-67
2023/07/20 09:15:23;;;;;;;0.40;0.35;;;;;;;24.26;55.39;100608.44;4967272;28;20041;-67
2023/07/20 09:17:50;;;;;;;1.80;0.43;;;;;;;24.00;57.22;100616.06;4967008;28;20042;-67
2023/07/20 09:20:20;;;;;;;0.70;0.40;;;;;;;23.66;61.28;100611.34;4963337;28;20038;-67
2023/07/20 09:22:46;;;;;;;2.15;0.50;;;;;;;23.25;65.21;100608.75;4968115;28;20125;-66
2023/07/20 09:25:15;;;;;;;0.40;0.28;;;;;;;23.36;67.31;100606.47;4962159;28;20030;-67
2023/07/20 09:27:48;;;;;;;0.60;0.30;;;;;;;23.63;68.06;100614.22;4960906;28;20409;-67
2023/07/20 09:30:15;;;;;;;0.90;0.40;;;;;;;23.82;66.99;100604.91;4962484;28;20101;-67
2023/07/20 09:32:43;;;;;;;0.50;0.38;;;;;;;24.07;66.96;100608.34;4962292;28;20586;-68
2023/07/20 09:35:19;;;;;;;0.50;0.38;;;;;;;24.43;66.49;100594.03;4965216;28;20031;-65
2023/07/20 09:38:00;;;;;;;0.40;0.40;;;;;;;24.66;65.55;100596.28;4963552;28;20046;-67
2023/07/20 09:40:27;;;;;;;1.17;0.70;;;;;;;24.95;63.03;100590.50;4970084;28;20129;-67
2023/07/20 09:43:04;;;;;;;1.48;0.50;;;;;;;25.26;60.72;100591.16;4959366;28;20050;-66
2023/07/20 09:45:40;;;;;;;0.45;0.20;;;;;;;25.42;59.28;100590.16;4961388;28;20070;-66
2023/07/20 09:48:06;;;;;;;2.80;0.45;;;;;;;25.51;56.93;100595.69;4964582;28;20089;-68
2023/07/20 09:50:42;;;;;;;0.80;0.43;;;;;;;25.34;54.71;100595.16;4966567;28;20030;-68
2023/07/20 09:53:12;;;;;;;1.02;0.30;;;;;;;25.11;56.06;100606.75;4966414;28;20070;-68
2023/07/20 09:55:39;;;;;;;0.50;0.35;;;;;;;24.96;57.43;100620.34;4963624;28;20030;-67
2023/07/20 09:58:06;;;;;;;1.23;0.50;;;;;;;24.58;62.47;100619.06;4971858;28;20027;-66
2023/07/20 10:00:34;;;;;;;0.35;0.15;;;;;;;24.11;65.65;100621.97;4974001;28;20034;-68
2023/07/20 10:03:22;;;;;;;1.17;0.20;;;;;;;23.82;68.50;100626.91;4972481;28;20042;-68
2023/07/20 10:06:07;;;;;;;1.23;0.30;;;;;;;23.78;71.20;100623.50;4854720;29;20053;-68
2023/07/20 10:08:38;;;;;;;0.47;0.28;;;;;;;23.93;70.07;100619.81;4842155;29;20044;-67
2023/07/20 10:11:04;;;;;;;0.35;0.22;;;;;;;23.98;70.12;100621.25;4872812;29;20113;-68
2023/07/20 10:13:32;;;;;;;1.95;0.30;;;;;;;24.13;67.92;100619.53;4878622;29;20549;-69
2023/07/20 10:16:03;;;;;;;0.17;0.10;;;;;;;24.30;64.53;100623.63;4835724;29;20698;-68
2023/07/20 10:18:41;;;;;;;3.20;0.32;;;;;;;24.27;65.48;100613.53;4865769;29;20486;-67
2023/07/20 10:21:09;;;;;;;0.10;0.05;;;;;;;24.61;65.44;100607.91;4861538;29;20503;-69
2023/07/20 10:23:35;;;;;;;0.63;0.30;;;;;;;24.69;64.91;100600.91;4847360;29;20123;-68
2023/07/20 10:26:02;;;;;;;0.20;0.03;;;;;;;25.06;63.84;100599.09;4864917;29;20586;-68
2023/07/20 10:28:28;;;;;;;0.57;0.13;;;;;;;25.31;61.21;100606.34;4858783;29;20036;-68
2023/07/20 10:30:54;;;;;;;0.90;0.10;;;;;;;25.72;59.92;100603.06;4880242;29;20133;-68
2023/07/20 10:33:21;;;;;;;0.17;0.17;;;;;;;25.86;58.19;100607.97;4873581;29;20065;-67
2023/07/20 10:36:00;;;;;;;1.52;0.10;;;;;;;26.19;55.85;100600.59;4869629;29;20139;-68
2023/07/20 10:38:55;;;;;;;1.98;0.20;;;;;;;26.39;55.30;100597.34;4873136;29;20465;-68
2023/07/20 10:41:24;;;;;;;1.67;0.30;;;;;;;26.56;54.41;100599.28;4873068;29;20179;-68
2023/07/20 10:43:50;;;;;;;0.28;0.10;;;;;;;26.71;53.08;100593.91;4975717;28;20058;-69
2023/07/20 10:46:34;;;;;;;0.60;0.60;;;;;;;26.86;51.61;100597.53;4967516;28;20050;-68
2023/07/20 10:49:04;;;;;;;0.10;0.10;;;;;;;27.26;50.91;100594.38;4964512;28;20035;-68
2023/07/20 10:51:50;;;;;;;0.10;0.10;;;;;;;27.26;51.25;100589.63;4975049;28;20031;-69
2023/07/20 10:54:15;;;;;;;0.65;0.15;;;;;;;27.13;52.19;100585.56;4907368;29;20048;-68
2023/07/20 10:56:40;;;;;;;0.20;0.10;;;;;;;27.15;50.56;100585.84;4905788;29;20588;-69
2023/07/20 10:59:35;;;;;;;0.10;0.10;;;;;;;27.27;48.91;100591.16;4899585;29;20052;-68
2023/07/20 11:02:06;;;;;;;1.15;0.28;;;;;;;26.88;48.65;100602.56;4913880;29;20040;-70
2023/07/20 11:04:51;;;;;;;0.00;0.00;;;;;;;26.64;48.20;100600.50;4900435;29;20047;-69
2023/07/20 11:07:36;;;;;;;0.08;0.05;;;;;;;26.57;47.26;100600.06;4900238;29;20076;-69
2023/07/20 11:10:13;;;;;;;0.00;0.00;;;;;;;26.24;48.41;100608.28;4908470;29;20502;-69
2023/07/20 11:12:39;;;;;;;0.00;0.00;;;;;;;26.03;49.30;100602.91;4902675;29;20052;-68
2023/07/20 11:15:05;;;;;;;3.78;0.28;;;;;;;25.87;53.68;100599.22;4918000;29;20471;-68
2023/07/20 11:17:51;;;;;;;0.20;0.10;;;;;;;25.53;55.61;100607.78;4907692;29;20127;-68
2023/07/20 11:20:17;;;;;;;3.40;0.30;;;;;;;25.23;57.65;100607.84;4839006;29;20236;-69
2023/07/20 11:22:43;;;;;;;0.93;0.20;;;;;;;25.42;58.27;100613.00;4838098;29;20167;-68
2023/07/20 11:25:10;;;;;;;0.57;0.20;;;;;;;25.31;57.51;100611.88;4834593;29;20603;-67
2023/07/20 11:27:45;;;;;;;0.30;0.30;;;;;;;25.35;59.61;100623.53;4824564;29;20133;-68